Time;durP1;ratioP1;P1;durP2;ratioP2;P2;SDS_P1;SDS_P2;PMS_P1;PMS_P2;Temp;Humidity;BMP_temperature;BMP_pressure;BME280_temperature;BME280_humidity;BME280_pressure;Samples;Min_cycle;Max_cycle;Signal;HPM_P1;HPM_P2
2023/12/31 00:01:35;;;;;;;31.73;25.00;;;12.60;87.90;;;;;;5095834;28;20036;-79
2023/12/31 00:04:02;;;;;;;31.33;25.25;;;12.60;87.80;;;;;;5094213;28;20027;-79
2023/12/31 00:06:27;;;;;;;31.75;24.65;;;12.70;87.80;;;;;;5093659;28;20487;-80
2023/12/31 00:08:53;;;;;;;29.70;24.88;;;12.70;87.70;;;;;;5092967;28;20111;-80
2023/12/31 00:11:19;;;;;;;33.78;23.88;;;12.70;87.60;;;;;;5092907;28;20051;-79
2023/12/31 00:13:45;;;;;;;31.20;25.10;;;12.70;87.80;;;;;;5093233;28;20024;-80
2023/12/31 00:16:14;;;;;;;30.52;24.50;;;12.60;87.60;;;;;;5092028;28;20093;-78
2023/12/31 00:18:40;;;;;;;35.50;24.05;;;12.60;87.60;;;;;;5091533;28;20562;-79
2023/12/31 00:21:06;;;;;;;31.90;23.90;;;12.60;88.00;;;;;;5093122;28;20060;-77
2023/12/31 00:23:32;;;;;;;30.33;24.83;;;12.50;87.40;;;;;;5092839;28;20043;-79
2023/12/31 00:25:58;;;;;;;34.75;24.33;;;12.40;87.70;;;;;;5095754;28;20028;-78
2023/12/31 00:28:24;;;;;;;30.35;23.85;;;12.40;87.70;;;;;;5093259;28;20043;-80
2023/12/31 00:30:49;;;;;;;36.25;23.83;;;12.30;87.80;;;;;;5092964;28;20036;-79
2023/12/31 00:33:16;;;;;;;31.20;24.10;;;12.30;87.70;;;;;;5093248;28;20029;-79
2023/12/31 00:35:41;;;;;;;33.75;25.08;;;12.30;88.00;;;;;;5091815;28;20032;-79
2023/12/31 00:38:07;;;;;;;29.95;23.50;;;12.30;87.80;;;;;;5093247;28;20025;-79
2023/12/31 00:40:33;;;;;;;32.22;24.70;;;12.30;88.10;;;;;;5093581;28;20448;-81
2023/12/31 00:42:59;;;;;;;29.80;23.27;;;12.20;87.70;;;;;;5094337;28;20073;-81
2023/12/31 00:45:25;;;;;;;31.83;24.10;;;12.10;87.90;;;;;;5092563;28;20040;-80
2023/12/31 00:47:51;;;;;;;30.83;24.38;;;12.10;88.10;;;;;;5093171;28;20032;-78
2023/12/31 00:50:19;;;;;;;35.15;24.63;;;12.10;88.10;;;;;;5093036;28;20059;-79
2023/12/31 00:52:45;;;;;;;33.03;23.80;;;12.00;88.20;;;;;;5093100;28;20051;-79
2023/12/31 00:55:10;;;;;;;31.50;25.38;;;12.00;88.00;;;;;;5093573;28;20434;-79
2023/12/31 00:57:36;;;;;;;32.50;24.77;;;12.00;88.20;;;;;;5093148;28;20063;-80
2023/12/31 01:00:04;;;;;;;30.27;23.88;;;11.90;88.40;;;;;;5093240;28;20031;-78
2023/12/31 01:02:30;;;;;;;30.33;23.42;;;11.90;88.70;;;;;;5093036;28;20036;-79
2023/12/31 01:04:55;;;;;;;32.88;25.13;;;11.90;88.30;;;;;;5092808;28;20036;-78
2023/12/31 01:07:21;;;;;;;32.15;24.02;;;11.90;88.50;;;;;;5092940;28;20403;-81
2023/12/31 01:09:47;;;;;;;36.85;26.15;;;11.90;88.50;;;;;;5093295;28;20028;-78
2023/12/31 01:12:13;;;;;;;30.15;24.02;;;11.90;88.50;;;;;;5092950;28;20040;-79
2023/12/31 01:14:39;;;;;;;29.70;24.35;;;11.90;88.60;;;;;;5093316;28;20035;-79
2023/12/31 01:17:05;;;;;;;31.23;23.60;;;11.90;88.80;;;;;;5093026;28;20036;-78
2023/12/31 01:19:31;;;;;;;31.40;24.15;;;11.90;88.90;;;;;;5093094;28;20395;-78
2023/12/31 01:21:56;;;;;;;29.10;22.77;;;11.90;88.80;;;;;;5095511;28;20499;-78
2023/12/31 01:24:22;;;;;;;32.05;24.13;;;12.00;88.60;;;;;;5096681;28;20032;-79
2023/12/31 01:26:47;;;;;;;32.13;24.52;;;12.10;88.60;;;;;;5095276;28;20036;-79
2023/12/31 01:29:14;;;;;;;31.02;24.25;;;12.20;88.40;;;;;;5097253;28;20062;-81
2023/12/31 01:31:40;;;;;;;31.25;24.10;;;12.10;88.40;;;;;;5099297;28;20044;-78
2023/12/31 01:34:06;;;;;;;30.45;22.80;;;12.10;88.30;;;;;;5096776;28;20097;-77
2023/12/31 01:36:31;;;;;;;32.42;24.33;;;12.10;88.50;;;;;;5094821;28;20036;-78
2023/12/31 01:38:57;;;;;;;28.23;23.70;;;12.20;88.50;;;;;;5095766;28;20028;-78
2023/12/31 01:41:23;;;;;;;31.23;24.42;;;12.20;88.40;;;;;;5095828;28;20487;-79
2023/12/31 01:43:49;;;;;;;31.13;24.67;;;12.20;88.20;;;;;;5095786;28;20059;-78
2023/12/31 01:46:27;;;;;;;30.48;23.63;;;12.20;88.50;;;;;;5096030;28;20032;-79
2023/12/31 01:48:53;;;;;;;28.65;23.60;;;12.10;88.40;;;;;;5096059;28;20085;-77
2023/12/31 01:51:19;;;;;;;33.53;24.70;;;12.20;88.50;;;;;;5095898;28;20048;-80
2023/12/31 01:53:45;;;;;;;33.25;24.15;;;12.20;88.60;;;;;;5095921;28;20387;-80
2023/12/31 01:56:11;;;;;;;30.92;23.55;;;12.10;88.50;;;;;;5095901;28;20074;-79
2023/12/31 01:58:37;;;;;;;30.05;23.38;;;12.00;88.60;;;;;;5095959;28;20056;-78
2023/12/31 02:01:05;;;;;;;29.98;23.60;;;12.00;88.70;;;;;;5095767;28;20036;-80
2023/12/31 02:03:33;;;;;;;30.80;23.95;;;11.90;88.80;;;;;;5095459;28;20372;-79
2023/12/31 02:05:59;;;;;;;28.80;22.67;;;11.90;89.00;;;;;;5095640;28;20706;-79
2023/12/31 02:08:25;;;;;;;27.48;22.83;;;11.90;89.00;;;;;;5095490;28;20028;-79
2023/12/31 02:10:52;;;;;;;28.35;22.63;;;11.90;89.00;;;;;;5094367;28;20051;-79
2023/12/31 02:13:18;;;;;;;28.23;23.15;;;11.80;89.00;;;;;;5095574;28;20085;-80
2023/12/31 02:15:43;;;;;;;26.52;22.38;;;11.70;89.20;;;;;;5095510;28;20078;-78
2023/12/31 02:18:09;;;;;;;27.10;22.30;;;11.60;89.00;;;;;;5095867;28;20024;-77
2023/12/31 02:20:35;;;;;;;28.67;22.55;;;11.50;89.50;;;;;;5095943;28;20111;-80
2023/12/31 02:23:01;;;;;;;30.65;23.50;;;11.50;89.40;;;;;;5098758;28;20035;-79
2023/12/31 02:25:31;;;;;;;26.60;21.17;;;11.50;89.70;;;;;;5100781;28;20039;-78
2023/12/31 02:27:57;;;;;;;25.50;22.00;;;11.60;89.80;;;;;;5103147;28;20046;-79
2023/12/31 02:30:25;;;;;;;32.25;23.27;;;11.60;89.90;;;;;;5107680;28;20036;-78
2023/12/31 02:32:51;;;;;;;26.05;22.02;;;11.60;89.50;;;;;;5101688;28;20415;-78
2023/12/31 02:35:17;;;;;;;28.00;22.83;;;11.60;89.40;;;;;;5096155;28;20032;-79
2023/12/31 02:37:42;;;;;;;28.30;23.15;;;11.60;89.40;;;;;;5095259;28;20117;-77
2023/12/31 02:40:09;;;;;;;34.67;23.35;;;11.60;89.20;;;;;;5095232;28;20491;-79
2023/12/31 02:42:34;;;;;;;28.23;22.20;;;11.60;89.50;;;;;;5094647;28;20032;-79
2023/12/31 02:45:00;;;;;;;26.75;21.90;;;11.50;89.40;;;;;;5094770;28;20094;-77
2023/12/31 02:47:26;;;;;;;26.17;21.52;;;11.50;89.50;;;;;;5095102;28;20028;-79
2023/12/31 02:49:51;;;;;;;28.65;23.02;;;11.50;89.70;;;;;;5094549;28;20033;-79
2023/12/31 02:52:17;;;;;;;30.25;23.58;;;11.60;89.50;;;;;;5094608;28;20040;-80
2023/12/31 02:54:45;;;;;;;31.02;22.67;;;11.60;89.30;;;;;;5094568;28;20036;-79
2023/12/31 02:57:11;;;;;;;26.52;22.35;;;11.60;89.40;;;;;;5094823;28;20032;-79
2023/12/31 02:59:37;;;;;;;28.20;23.60;;;11.60;89.50;;;;;;5094482;28;20487;-79
2023/12/31 03:02:04;;;;;;;31.35;23.42;;;11.60;89.40;;;;;;5094549;28;20111;-78
2023/12/31 03:04:29;;;;;;;26.90;22.77;;;11.60;89.50;;;;;;5094852;28;20032;-79
2023/12/31 03:06:55;;;;;;;28.02;22.98;;;11.60;90.00;;;;;;5098223;28;20067;-79
2023/12/31 03:09:21;;;;;;;29.48;23.15;;;11.50;89.60;;;;;;5097456;28;20031;-79
2023/12/31 03:11:47;;;;;;;29.05;23.77;;;11.50;89.80;;;;;;5094383;28;20048;-81
2023/12/31 03:14:14;;;;;;;30.38;22.67;;;11.50;89.70;;;;;;5093850;28;20035;-78
2023/12/31 03:16:44;;;;;;;31.55;22.75;;;11.50;89.70;;;;;;5094429;28;20510;-78
2023/12/31 03:19:11;;;;;;;31.15;23.05;;;11.50;89.80;;;;;;5096565;28;20035;-78
2023/12/31 03:21:37;;;;;;;27.98;23.55;;;11.50;89.80;;;;;;5094481;28;20488;-80
2023/12/31 03:24:03;;;;;;;27.67;22.70;;;11.50;90.00;;;;;;5094236;28;20035;-78
2023/12/31 03:26:29;;;;;;;29.33;23.58;;;11.50;89.90;;;;;;5095267;28;20028;-79
2023/12/31 03:28:54;;;;;;;29.30;24.42;;;11.40;89.70;;;;;;5095431;28;20031;-79
2023/12/31 03:31:20;;;;;;;28.45;22.77;;;11.40;89.90;;;;;;5094860;28;20376;-79
2023/12/31 03:33:46;;;;;;;30.95;23.02;;;11.50;90.00;;;;;;5093879;28;20039;-78
2023/12/31 03:36:12;;;;;;;28.80;23.88;;;11.50;90.00;;;;;;5093919;28;20081;-79
2023/12/31 03:38:37;;;;;;;29.13;23.85;;;11.40;89.90;;;;;;5094441;28;20111;-82
2023/12/31 03:41:04;;;;;;;27.88;23.27;;;11.50;90.00;;;;;;5093724;28;20063;-80
2023/12/31 03:43:30;;;;;;;29.33;24.15;;;11.40;90.00;;;;;;5093264;28;20048;-80
2023/12/31 03:45:57;;;;;;;29.30;23.65;;;11.50;90.00;;;;;;5092795;28;20024;-80
2023/12/31 03:48:23;;;;;;;27.80;22.92;;;11.50;90.00;;;;;;5092248;28;20406;-79
2023/12/31 03:50:49;;;;;;;31.77;24.15;;;11.40;89.90;;;;;;5093710;28;20085;-78
2023/12/31 03:53:15;;;;;;;27.80;23.35;;;11.30;89.80;;;;;;5092437;28;20028;-80
2023/12/31 03:55:42;;;;;;;29.73;23.27;;;11.30;90.40;;;;;;5093259;28;20419;-79
2023/12/31 03:58:08;;;;;;;26.25;21.95;;;11.30;90.10;;;;;;5093208;28;20532;-79
2023/12/31 04:00:34;;;;;;;28.75;22.63;;;11.30;90.10;;;;;;5092960;28;20384;-78
2023/12/31 04:03:00;;;;;;;27.63;22.23;;;11.30;90.20;;;;;;5091915;28;20036;-78
2023/12/31 04:05:25;;;;;;;27.48;22.20;;;11.30;90.10;;;;;;5093136;28;20032;-78
2023/12/31 04:07:51;;;;;;;30.70;21.67;;;11.30;90.10;;;;;;5092956;28;20029;-79
2023/12/31 04:10:17;;;;;;;30.38;23.08;;;11.30;90.10;;;;;;5093188;28;20036;-77
2023/12/31 04:12:43;;;;;;;29.20;21.95;;;11.30;90.30;;;;;;5092716;28;20052;-77
2023/12/31 04:15:08;;;;;;;27.40;21.52;;;11.20;90.10;;;;;;5093062;28;20028;-78
2023/12/31 04:17:35;;;;;;;28.80;22.85;;;11.20;90.00;;;;;;5093007;28;20042;-77
2023/12/31 04:20:01;;;;;;;28.27;22.85;;;11.20;90.10;;;;;;5093135;28;20112;-78
2023/12/31 04:22:26;;;;;;;28.27;22.55;;;11.20;90.10;;;;;;5091826;28;20063;-80
2023/12/31 04:24:52;;;;;;;27.73;22.55;;;11.20;90.20;;;;;;5092688;28;20115;-78
2023/12/31 04:27:19;;;;;;;26.58;22.42;;;11.10;90.10;;;;;;5091364;28;20074;-79
2023/12/31 04:29:44;;;;;;;25.55;20.95;;;11.10;90.20;;;;;;5092689;28;20036;-79
2023/12/31 04:32:10;;;;;;;27.88;21.83;;;11.10;90.30;;;;;;5092675;28;20115;-78
2023/12/31 04:34:36;;;;;;;26.73;21.13;;;11.10;90.20;;;;;;5092892;28;20473;-77
2023/12/31 04:37:02;;;;;;;27.27;21.33;;;11.10;90.20;;;;;;5091315;28;20039;-78
2023/12/31 04:39:28;;;;;;;31.45;21.92;;;11.10;90.10;;;;;;5091511;28;20029;-79
2023/12/31 04:41:54;;;;;;;28.15;21.67;;;11.20;90.10;;;;;;5092416;28;20136;-79
2023/12/31 04:44:21;;;;;;;30.67;22.20;;;11.20;90.10;;;;;;5093911;28;20055;-79
2023/12/31 04:46:46;;;;;;;29.58;22.23;;;11.10;90.10;;;;;;5092952;28;20064;-78
2023/12/31 04:49:15;;;;;;;29.83;22.13;;;11.10;90.10;;;;;;5092476;28;20059;-78
2023/12/31 04:51:41;;;;;;;27.73;21.92;;;11.00;90.00;;;;;;5092479;28;20072;-78
2023/12/31 04:54:08;;;;;;;25.40;21.58;;;11.00;90.10;;;;;;5092749;28;20035;-78
2023/12/31 04:56:34;;;;;;;28.30;22.48;;;11.10;90.10;;;;;;5102846;28;20033;-78
2023/12/31 04:59:00;;;;;;;29.90;22.55;;;11.20;90.10;;;;;;5112386;28;20027;-79
2023/12/31 05:01:33;;;;;;;29.92;23.33;;;11.20;90.00;;;;;;5120932;28;20036;-78
2023/12/31 05:04:00;;;;;;;28.30;23.00;;;11.30;90.00;;;;;;5104221;28;20051;-78
2023/12/31 05:06:26;;;;;;;30.35;24.77;;;11.30;90.10;;;;;;5096992;28;20094;-78
2023/12/31 05:08:52;;;;;;;30.42;23.15;;;11.40;90.00;;;;;;5096063;28;20028;-79
2023/12/31 05:11:18;;;;;;;29.27;24.00;;;11.40;90.00;;;;;;5096297;28;20051;-78
2023/12/31 05:13:44;;;;;;;29.23;24.55;;;11.40;90.20;;;;;;5096325;28;20037;-78
2023/12/31 05:16:14;;;;;;;33.03;23.73;;;11.50;90.00;;;;;;5094867;28;20040;-79
2023/12/31 05:18:46;;;;;;;27.30;22.42;;;11.40;89.90;;;;;;5096258;28;20032;-77
2023/12/31 05:21:12;;;;;;;28.35;21.95;;;11.40;89.70;;;;;;5096556;28;20036;-77
2023/12/31 05:23:38;;;;;;;29.80;23.42;;;11.40;90.00;;;;;;5096679;28;20028;-78
2023/12/31 05:26:04;;;;;;;29.80;23.85;;;11.40;90.00;;;;;;5077971;28;20043;-79
2023/12/31 05:28:30;;;;;;;28.40;22.52;;;11.30;89.90;;;;;;5096511;28;20456;-77
2023/12/31 05:30:56;;;;;;;26.88;22.55;;;11.40;90.00;;;;;;5096220;28;20040;-79
2023/12/31 05:33:21;;;;;;;31.38;23.92;;;11.40;90.00;;;;;;5094540;28;20058;-78
2023/12/31 05:35:47;;;;;;;30.30;23.83;;;11.50;90.00;;;;;;5096160;28;20036;-79
2023/12/31 05:38:13;;;;;;;32.58;24.35;;;11.60;90.00;;;;;;5095906;28;20024;-79
2023/12/31 05:40:39;;;;;;;29.83;24.35;;;11.60;89.60;;;;;;5096016;28;20086;-78
2023/12/31 05:43:05;;;;;;;30.27;24.38;;;11.60;89.90;;;;;;5095589;28;20040;-79
2023/12/31 05:45:31;;;;;;;32.20;24.77;;;11.70;89.90;;;;;;5095761;28;20105;-77
2023/12/31 05:47:57;;;;;;;35.72;27.15;;;11.70;89.70;;;;;;5095934;28;20039;-79
2023/12/31 05:50:22;;;;;;;33.58;26.35;;;11.80;89.80;;;;;;5095865;28;20028;-79
2023/12/31 05:52:48;;;;;;;32.80;26.70;;;11.80;90.10;;;;;;5095438;28;20407;-79
2023/12/31 05:55:14;;;;;;;37.40;29.38;;;11.90;90.00;;;;;;5094515;28;20114;-78
2023/12/31 05:57:40;;;;;;;30.85;26.75;;;11.90;90.10;;;;;;5096307;28;20051;-80
2023/12/31 06:00:07;;;;;;;37.67;27.55;;;11.90;90.00;;;;;;5096528;28;20035;-79
2023/12/31 06:02:33;;;;;;;31.55;26.73;;;11.90;89.90;;;;;;5096551;28;20055;-78
2023/12/31 06:04:59;;;;;;;33.75;26.85;;;11.80;90.00;;;;;;5096466;28;20515;-79
2023/12/31 06:07:25;;;;;;;32.78;26.92;;;11.80;90.10;;;;;;5093751;28;20047;-79
2023/12/31 06:09:50;;;;;;;33.63;26.50;;;11.80;90.10;;;;;;5096025;28;20111;-78
2023/12/31 06:12:16;;;;;;;32.40;25.95;;;11.80;90.10;;;;;;5096439;28;20555;-79
2023/12/31 06:14:42;;;;;;;34.00;27.65;;;11.70;90.10;;;;;;5099113;28;20040;-79
2023/12/31 06:17:08;;;;;;;39.08;26.48;;;11.70;90.00;;;;;;5095394;28;20459;-78
2023/12/31 06:19:33;;;;;;;32.05;26.20;;;11.60;90.00;;;;;;5095186;28;20514;-79
2023/12/31 06:21:59;;;;;;;32.38;26.55;;;11.60;90.10;;;;;;5096843;28;20040;-78
2023/12/31 06:24:25;;;;;;;29.30;25.17;;;11.60;90.00;;;;;;5095049;28;20028;-78
2023/12/31 06:26:52;;;;;;;31.27;25.15;;;11.50;90.00;;;;;;5095085;28;20035;-78
2023/12/31 06:29:18;;;;;;;34.38;25.40;;;11.50;90.10;;;;;;5095163;28;20059;-78
2023/12/31 06:31:44;;;;;;;30.52;24.73;;;11.50;90.10;;;;;;5093179;28;20479;-78
2023/12/31 06:34:09;;;;;;;28.83;23.52;;;11.50;90.10;;;;;;5094510;28;20043;-78
2023/12/31 06:36:35;;;;;;;27.17;23.80;;;11.50;90.10;;;;;;5093161;28;20035;-78
2023/12/31 06:39:01;;;;;;;28.30;23.95;;;11.50;90.10;;;;;;5094217;28;20024;-77
2023/12/31 06:41:27;;;;;;;27.98;23.02;;;11.50;90.10;;;;;;5094431;28;20119;-78
2023/12/31 06:43:52;;;;;;;32.15;24.05;;;11.50;90.00;;;;;;5092694;28;20051;-78
2023/12/31 06:46:18;;;;;;;29.90;23.23;;;11.40;90.10;;;;;;5094701;28;20035;-78
2023/12/31 06:48:44;;;;;;;31.50;23.52;;;11.30;90.10;;;;;;5094498;28;20498;-78
2023/12/31 06:51:10;;;;;;;29.50;24.17;;;11.40;89.90;;;;;;5094197;28;20044;-78
2023/12/31 06:53:35;;;;;;;28.30;22.55;;;11.40;90.10;;;;;;5094313;28;20107;-77
2023/12/31 06:56:05;;;;;;;30.08;22.58;;;11.40;90.10;;;;;;5094452;28;20055;-78
2023/12/31 06:58:31;;;;;;;28.33;23.50;;;11.50;90.00;;;;;;5094105;28;20036;-77
2023/12/31 07:00:56;;;;;;;28.40;22.45;;;11.50;89.80;;;;;;5092749;28;20074;-79
2023/12/31 07:03:22;;;;;;;30.88;23.45;;;11.50;89.80;;;;;;5094050;28;20500;-78
2023/12/31 07:05:47;;;;;;;28.85;22.80;;;11.50;89.60;;;;;;5094615;28;20036;-79
2023/12/31 07:08:14;;;;;;;28.20;22.50;;;11.50;89.60;;;;;;5094670;28;20111;-79
2023/12/31 07:10:40;;;;;;;27.92;22.92;;;11.50;89.60;;;;;;5094529;28;20043;-79
2023/12/31 07:13:05;;;;;;;27.05;22.13;;;11.50;89.60;;;;;;5094404;28;20036;-77
2023/12/31 07:15:31;;;;;;;27.63;22.33;;;11.50;89.60;;;;;;5094576;28;20502;-78
2023/12/31 07:17:57;;;;;;;27.02;22.25;;;11.60;89.80;;;;;;5110434;28;20040;-78
2023/12/31 07:20:23;;;;;;;28.80;23.13;;;11.60;89.60;;;;;;5116253;28;20039;-78
2023/12/31 07:22:48;;;;;;;26.45;22.20;;;11.70;89.70;;;;;;5108630;28;20027;-78
2023/12/31 07:25:14;;;;;;;27.73;22.38;;;11.70;89.40;;;;;;5104067;28;20032;-78
2023/12/31 07:27:40;;;;;;;29.00;22.98;;;11.70;89.50;;;;;;5097411;28;20041;-79
2023/12/31 07:30:06;;;;;;;25.83;21.73;;;11.80;89.50;;;;;;5093803;28;20119;-79
2023/12/31 07:32:32;;;;;;;29.40;21.80;;;11.90;89.30;;;;;;5092107;28;20356;-79
2023/12/31 07:34:58;;;;;;;27.48;22.73;;;11.90;89.20;;;;;;5093595;28;20028;-78
2023/12/31 07:37:23;;;;;;;26.75;22.00;;;11.90;89.00;;;;;;5093351;28;20106;-78
2023/12/31 07:39:49;;;;;;;26.98;22.40;;;11.80;89.10;;;;;;5092942;28;20399;-79
2023/12/31 07:42:15;;;;;;;29.55;21.95;;;11.80;89.10;;;;;;5093259;28;20042;-79
2023/12/31 07:44:41;;;;;;;30.10;22.02;;;11.80;89.00;;;;;;5093418;28;20468;-79
2023/12/31 07:47:06;;;;;;;28.52;22.02;;;11.80;89.00;;;;;;5094161;28;20472;-79
2023/12/31 07:49:33;;;;;;;27.75;22.13;;;11.90;89.20;;;;;;5093207;28;20036;-78
2023/12/31 07:51:59;;;;;;;28.13;22.27;;;11.90;89.00;;;;;;5098636;28;20094;-79
2023/12/31 07:54:25;;;;;;;27.58;22.58;;;11.90;89.00;;;;;;5094380;28;20036;-79
2023/12/31 07:56:52;;;;;;;26.77;21.70;;;11.90;89.10;;;;;;5093167;28;20036;-78
2023/12/31 07:59:18;;;;;;;29.02;21.40;;;11.90;88.90;;;;;;5093086;28;20072;-79
2023/12/31 08:01:44;;;;;;;24.92;20.38;;;12.00;88.80;;;;;;5091802;28;20032;-78
2023/12/31 08:04:09;;;;;;;26.10;21.33;;;12.00;88.80;;;;;;5093007;28;20429;-78
2023/12/31 08:06:36;;;;;;;25.45;21.42;;;12.10;88.80;;;;;;5093662;28;20040;-80
2023/12/31 08:09:02;;;;;;;27.95;22.48;;;12.10;88.70;;;;;;5093630;28;20062;-78
2023/12/31 08:11:28;;;;;;;28.80;23.48;;;12.20;88.40;;;;;;5093853;28;20122;-80
2023/12/31 08:13:54;;;;;;;28.38;24.52;;;12.30;88.30;;;;;;5092868;28;20217;-79
2023/12/31 08:16:20;;;;;;;32.50;26.73;;;12.40;88.10;;;;;;5093077;28;20506;-79
2023/12/31 08:18:46;;;;;;;30.98;24.38;;;12.40;88.00;;;;;;5093307;28;20476;-77
2023/12/31 08:21:12;;;;;;;30.50;24.17;;;12.40;87.80;;;;;;5093407;28;20384;-79
2023/12/31 08:23:37;;;;;;;28.92;23.77;;;12.50;87.90;;;;;;5093251;28;20448;-79
2023/12/31 08:26:03;;;;;;;28.10;23.70;;;12.60;87.70;;;;;;5093416;28;20028;-78
2023/12/31 08:28:30;;;;;;;29.92;24.33;;;12.60;87.30;;;;;;5093452;28;20035;-80
2023/12/31 08:30:55;;;;;;;29.65;24.70;;;12.70;87.70;;;;;;5094708;28;20089;-79
2023/12/31 08:33:21;;;;;;;32.58;24.95;;;12.70;87.40;;;;;;5098053;28;20040;-80
2023/12/31 08:35:48;;;;;;;33.90;25.02;;;12.80;87.40;;;;;;5097481;28;20032;-80
2023/12/31 08:38:14;;;;;;;29.85;25.30;;;12.80;87.40;;;;;;5097163;28;20032;-79
2023/12/31 08:40:40;;;;;;;28.52;24.40;;;12.80;87.10;;;;;;5097339;28;20031;-79
2023/12/31 08:43:05;;;;;;;35.15;25.88;;;12.90;87.00;;;;;;5095546;28;20173;-78
2023/12/31 08:45:34;;;;;;;28.98;24.25;;;12.90;86.90;;;;;;5096965;28;20376;-78
2023/12/31 08:48:00;;;;;;;31.88;23.63;;;12.90;86.90;;;;;;5097626;28;20031;-80
2023/12/31 08:50:26;;;;;;;28.00;23.63;;;12.90;87.00;;;;;;5096781;28;20078;-80
2023/12/31 08:52:51;;;;;;;29.67;23.38;;;13.00;87.00;;;;;;5101139;28;20483;-80
2023/12/31 08:55:17;;;;;;;28.30;22.75;;;13.00;86.70;;;;;;5097187;28;20112;-79
2023/12/31 08:57:47;;;;;;;26.23;22.25;;;13.10;86.80;;;;;;5096912;28;20119;-78
2023/12/31 09:00:13;;;;;;;29.05;24.10;;;13.00;86.40;;;;;;5096938;28;20488;-80
2023/12/31 09:02:39;;;;;;;27.58;22.92;;;13.10;86.70;;;;;;5097130;28;20044;-79
2023/12/31 09:05:05;;;;;;;30.33;24.02;;;13.10;86.20;;;;;;5096803;28;20476;-79
2023/12/31 09:07:35;;;;;;;32.75;24.45;;;13.20;86.30;;;;;;5095567;28;20024;-79
2023/12/31 09:10:02;;;;;;;28.27;23.50;;;13.10;85.90;;;;;;5096836;28;20043;-79
2023/12/31 09:12:28;;;;;;;32.25;26.55;;;13.10;86.40;;;;;;5097473;28;20036;-82
2023/12/31 09:14:54;;;;;;;33.80;26.35;;;13.20;86.30;;;;;;5096286;28;20460;-79
2023/12/31 09:17:19;;;;;;;32.08;26.55;;;13.20;86.20;;;;;;5097044;28;20484;-79
2023/12/31 09:19:45;;;;;;;32.85;26.40;;;13.30;86.00;;;;;;5096859;28;20032;-80
2023/12/31 09:22:11;;;;;;;29.27;24.83;;;13.30;85.90;;;;;;5096669;28;20028;-81
2023/12/31 09:24:37;;;;;;;32.05;25.15;;;13.40;85.90;;;;;;5101741;28;20466;-79
2023/12/31 09:27:03;;;;;;;28.50;24.10;;;13.50;85.70;;;;;;5097442;28;20035;-79
2023/12/31 09:29:29;;;;;;;32.42;25.02;;;13.50;85.50;;;;;;5094839;28;20414;-80
2023/12/31 09:31:55;;;;;;;27.67;23.85;;;13.60;85.60;;;;;;5096408;28;20036;-78
2023/12/31 09:34:21;;;;;;;30.40;24.02;;;13.70;85.40;;;;;;5096893;28;20035;-79
2023/12/31 09:36:47;;;;;;;29.08;24.58;;;13.70;85.40;;;;;;5098660;28;20541;-78
2023/12/31 09:39:13;;;;;;;32.80;27.67;;;13.80;85.50;;;;;;5107552;28;20088;-78
2023/12/31 09:41:40;;;;;;;36.58;30.35;;;13.90;85.60;;;;;;5108537;28;20420;-78
2023/12/31 09:44:06;;;;;;;38.85;33.28;;;13.90;85.80;;;;;;5117342;28;20040;-79
2023/12/31 09:46:37;;;;;;;34.75;27.90;;;13.90;85.80;;;;;;5115256;28;20047;-80
2023/12/31 09:49:03;;;;;;;34.83;28.52;;;14.00;86.20;;;;;;5096396;28;20028;-79
2023/12/31 09:51:30;;;;;;;34.10;27.38;;;14.00;86.20;;;;;;5096421;28;20039;-80
2023/12/31 09:53:56;;;;;;;36.55;27.50;;;14.00;86.20;;;;;;5097597;28;20028;-81
2023/12/31 09:56:23;;;;;;;36.13;29.75;;;14.00;86.50;;;;;;5097149;28;20459;-81
2023/12/31 09:58:51;;;;;;;33.92;27.27;;;14.00;86.60;;;;;;5098818;28;20028;-79
2023/12/31 10:01:17;;;;;;;31.23;27.27;;;14.00;87.00;;;;;;5098891;28;20036;-79
2023/12/31 10:03:45;;;;;;;34.03;28.40;;;14.00;87.00;;;;;;5095717;28;20059;-80
2023/12/31 10:06:11;;;;;;;33.83;28.75;;;14.00;87.20;;;;;;5094087;28;20067;-79
2023/12/31 10:08:39;;;;;;;33.35;27.80;;;14.00;87.30;;;;;;5095427;28;20032;-80
2023/12/31 10:11:06;;;;;;;36.17;28.50;;;13.90;87.40;;;;;;5095093;28;20047;-78
2023/12/31 10:13:32;;;;;;;37.35;29.05;;;14.00;87.50;;;;;;5095669;28;20032;-79
2023/12/31 10:15:57;;;;;;;37.10;29.65;;;14.00;87.50;;;;;;5094150;28;20032;-79
2023/12/31 10:18:26;;;;;;;37.30;29.60;;;14.10;87.50;;;;;;5095362;28;20028;-80
2023/12/31 10:20:52;;;;;;;37.90;30.58;;;14.10;87.40;;;;;;5095751;28;20107;-81
2023/12/31 10:23:18;;;;;;;34.13;29.70;;;14.10;87.80;;;;;;5096274;28;20099;-81
2023/12/31 10:25:44;;;;;;;35.65;30.15;;;14.10;88.00;;;;;;5094760;28;20048;-80
2023/12/31 10:28:10;;;;;;;39.17;30.67;;;14.10;88.30;;;;;;5094612;28;20032;-79
2023/12/31 10:30:39;;;;;;;33.67;29.80;;;14.00;88.00;;;;;;5095769;28;20038;-81
2023/12/31 10:33:11;;;;;;;36.17;30.83;;;14.10;88.20;;;;;;5095524;28;20070;-80
2023/12/31 10:35:37;;;;;;;35.30;30.27;;;14.10;88.50;;;;;;5096852;28;20059;-79
2023/12/31 10:38:04;;;;;;;38.65;30.88;;;14.10;88.70;;;;;;5097307;28;20043;-80
2023/12/31 10:40:30;;;;;;;34.90;30.60;;;14.10;88.80;;;;;;5095603;28;20077;-80
2023/12/31 10:42:56;;;;;;;43.65;32.35;;;14.10;89.50;;;;;;5095362;28;20040;-80
2023/12/31 10:45:22;;;;;;;40.75;33.10;;;14.10;89.20;;;;;;5095747;28;20040;-81
2023/12/31 10:47:53;;;;;;;37.85;31.75;;;14.10;89.20;;;;;;5095550;28;20039;-80
2023/12/31 10:50:25;;;;;;;40.45;31.23;;;14.10;89.30;;;;;;5097551;28;20153;-79
2023/12/31 10:53:01;;;;;;;37.53;31.88;;;14.10;89.50;;;;;;5095532;28;20040;-81
2023/12/31 10:55:27;;;;;;;37.05;30.50;;;14.20;89.60;;;;;;5095062;28;20024;-80
2023/12/31 10:57:54;;;;;;;36.80;31.60;;;14.30;89.50;;;;;;5095993;28;20032;-80
2023/12/31 11:00:20;;;;;;;44.90;37.22;;;14.50;89.60;;;;;;5095705;28;20107;-81
2023/12/31 11:02:49;;;;;;;37.42;33.33;;;14.50;89.20;;;;;;5093532;28;20116;-80
2023/12/31 11:05:17;;;;;;;39.60;34.10;;;14.60;89.00;;;;;;5094583;28;20032;-79
2023/12/31 11:07:45;;;;;;;36.75;31.90;;;14.70;89.20;;;;;;5094535;28;20387;-80
2023/12/31 11:10:12;;;;;;;37.92;32.22;;;14.90;89.30;;;;;;5094855;28;20089;-81
2023/12/31 11:12:39;;;;;;;38.90;33.88;;;14.90;89.10;;;;;;5094529;28;20056;-80
2023/12/31 11:15:15;;;;;;;38.15;33.35;;;14.90;88.90;;;;;;5094252;28;20403;-80
2023/12/31 11:18:05;;;;;;;39.20;32.58;;;15.00;89.10;;;;;;5095289;28;20119;-79
2023/12/31 11:20:45;;;;;;;36.53;32.55;;;15.00;88.60;;;;;;5095479;28;20036;-79
2023/12/31 11:23:32;;;;;;;43.90;35.70;;;15.10;88.90;;;;;;5096401;28;20024;-81
2023/12/31 11:25:59;;;;;;;37.65;32.97;;;15.30;88.70;;;;;;5092285;28;20102;-79
2023/12/31 11:28:28;;;;;;;38.60;33.38;;;15.40;88.90;;;;;;5094463;28;20036;-80
2023/12/31 11:30:58;;;;;;;38.33;33.60;;;15.50;88.60;;;;;;5094192;28;20032;-79
2023/12/31 11:33:31;;;;;;;40.70;34.75;;;15.70;88.40;;;;;;5093776;28;20115;-79
2023/12/31 11:36:03;;;;;;;38.17;33.97;;;15.90;88.10;;;;;;5093466;28;20398;-79
2023/12/31 11:38:58;;;;;;;40.88;34.20;;;16.00;87.70;;;;;;5093569;28;20040;-80
2023/12/31 11:41:43;;;;;;;38.83;32.47;;;16.10;87.40;;;;;;5093189;28;20040;-79
2023/12/31 11:44:09;;;;;;;41.15;33.05;;;16.00;87.70;;;;;;5093105;28;20040;-79
2023/12/31 11:46:37;;;;;;;35.83;31.95;;;16.00;87.60;;;;;;5093334;28;20035;-80
2023/12/31 11:49:03;;;;;;;38.00;32.40;;;16.00;87.60;;;;;;5093202;28;20043;-79
2023/12/31 11:51:50;;;;;;;34.38;30.65;;;16.00;87.60;;;;;;5093113;28;20126;-80
2023/12/31 11:54:37;;;;;;;33.28;26.65;;;16.10;87.60;;;;;;5093472;28;20030;-81
2023/12/31 11:57:04;;;;;;;44.50;35.78;;;16.00;87.60;;;;;;5093191;28;20110;-80
2023/12/31 11:59:38;;;;;;;37.00;31.80;;;15.90;87.80;;;;;;5093505;28;20033;-80
2023/12/31 12:02:05;;;;;;;;;;;15.90;88.10;;;;;;5092311;28;20032;-80
2023/12/31 12:04:30;;;;;;;34.78;30.25;;;16.00;88.50;;;;;;5093993;28;19995;-80
2023/12/31 12:06:56;;;;;;;37.38;32.15;;;16.20;87.70;;;;;;5092965;28;20530;-79
2023/12/31 12:09:26;;;;;;;34.70;29.25;;;16.50;87.40;;;;;;5093786;28;20032;-80
2023/12/31 12:11:56;;;;;;;33.60;29.30;;;16.70;87.40;;;;;;5099456;28;20062;-79
2023/12/31 12:14:22;;;;;;;32.28;28.48;;;17.00;86.30;;;;;;5112117;28;20057;-79
2023/12/31 12:16:48;;;;;;;36.72;28.73;;;17.20;86.30;;;;;;5112537;28;20032;-80
2023/12/31 12:19:14;;;;;;;39.30;32.88;;;17.30;85.30;;;;;;5102454;28;20062;-80
2023/12/31 12:21:41;;;;;;;21.23;18.33;;;17.40;85.20;;;;;;5098885;28;20514;-79
2023/12/31 12:24:08;;;;;;;15.98;14.10;;;17.30;84.90;;;;;;5092690;28;20133;-81
2023/12/31 12:26:36;;;;;;;14.10;10.70;;;17.40;84.80;;;;;;5092778;28;20103;-80